sensor_id;sensor_type;location;lat;lon;timestamp;P1;durP1;ratioP1;P2;durP2;ratioP2
21665;SDS011;10994;45.486;9.190;2022-07-29T00:01:51;1.83;;;1.73;;
21665;SDS011;10994;45.486;9.190;2022-07-29T00:04:17;3.40;;;1.40;;
21665;SDS011;10994;45.486;9.190;2022-07-29T00:06:44;1.60;;;1.50;;
21665;SDS011;10994;45.486;9.190;2022-07-29T00:09:10;2.05;;;1.65;;
21665;SDS011;10994;45.486;9.190;2022-07-29T00:11:36;2.33;;;1.85;;
21665;SDS011;10994;45.486;9.190;2022-07-29T00:14:01;2.33;;;1.90;;
21665;SDS011;10994;45.486;9.190;2022-07-29T00:16:27;2.33;;;1.83;;
21665;SDS011;10994;45.486;9.190;2022-07-29T00:18:53;1.52;;;1.42;;
21665;SDS011;10994;45.486;9.190;2022-07-29T00:21:18;1.98;;;1.70;;
21665;SDS011;10994;45.486;9.190;2022-07-29T00:23:44;1.75;;;1.45;;
21665;SDS011;10994;45.486;9.190;2022-07-29T00:26:10;1.95;;;1.60;;
21665;SDS011;10994;45.486;9.190;2022-07-29T00:28:35;2.65;;;1.40;;
21665;SDS011;10994;45.486;9.190;2022-07-29T00:31:01;4.10;;;1.52;;
21665;SDS011;10994;45.486;9.190;2022-07-29T00:33:27;1.73;;;1.30;;
21665;SDS011;10994;45.486;9.190;2022-07-29T00:35:53;1.30;;;1.20;;
21665;SDS011;10994;45.486;9.190;2022-07-29T00:38:19;2.33;;;1.88;;
21665;SDS011;10994;45.486;9.190;2022-07-29T00:40:47;2.78;;;1.70;;
21665;SDS011;10994;45.486;9.190;2022-07-29T00:43:14;2.38;;;1.60;;
21665;SDS011;10994;45.486;9.190;2022-07-29T00:45:41;2.95;;;1.50;;
21665;SDS011;10994;45.486;9.190;2022-07-29T00:48:06;2.28;;;1.58;;
21665;SDS011;10994;45.486;9.190;2022-07-29T00:50:33;2.17;;;1.77;;
21665;SDS011;10994;45.486;9.190;2022-07-29T00:53:00;1.60;;;1.48;;
21665;SDS011;10994;45.486;9.190;2022-07-29T00:55:27;1.90;;;1.55;;
21665;SDS011;10994;45.486;9.190;2022-07-29T00:57:53;3.03;;;1.70;;
21665;SDS011;10994;45.486;9.190;2022-07-29T01:00:24;2.90;;;2.00;;
21665;SDS011;10994;45.486;9.190;2022-07-29T01:02:52;2.10;;;1.58;;
21665;SDS011;10994;45.486;9.190;2022-07-29T01:05:18;2.05;;;1.83;;
21665;SDS011;10994;45.486;9.190;2022-07-29T01:07:46;1.40;;;1.30;;
21665;SDS011;10994;45.486;9.190;2022-07-29T01:10:13;2.42;;;1.52;;
21665;SDS011;10994;45.486;9.190;2022-07-29T01:12:40;2.22;;;1.40;;
21665;SDS011;10994;45.486;9.190;2022-07-29T01:15:08;3.08;;;1.83;;
21665;SDS011;10994;45.486;9.190;2022-07-29T01:23:14;3.65;;;1.27;;
21665;SDS011;10994;45.486;9.190;2022-07-29T01:26:04;1.45;;;1.35;;
21665;SDS011;10994;45.486;9.190;2022-07-29T01:29:10;1.35;;;1.25;;
21665;SDS011;10994;45.486;9.190;2022-07-29T01:34:27;1.73;;;1.17;;
21665;SDS011;10994;45.486;9.190;2022-07-29T01:36:55;2.30;;;1.17;;
21665;SDS011;10994;45.486;9.190;2022-07-29T01:39:30;1.42;;;1.33;;
21665;SDS011;10994;45.486;9.190;2022-07-29T01:42:06;2.50;;;1.25;;
21665;SDS011;10994;45.486;9.190;2022-07-29T01:44:36;1.88;;;1.52;;
21665;SDS011;10994;45.486;9.190;2022-07-29T01:47:11;1.73;;;1.17;;
21665;SDS011;10994;45.486;9.190;2022-07-29T01:49:41;1.45;;;1.20;;
21665;SDS011;10994;45.486;9.190;2022-07-29T01:52:18;2.15;;;1.23;;
21665;SDS011;10994;45.486;9.190;2022-07-29T01:54:50;3.17;;;1.40;;
21665;SDS011;10994;45.486;9.190;2022-07-29T01:57:19;1.85;;;1.25;;
21665;SDS011;10994;45.486;9.190;2022-07-29T01:59:50;2.65;;;1.50;;
21665;SDS011;10994;45.486;9.190;2022-07-29T02:02:17;2.10;;;1.58;;
21665;SDS011;10994;45.486;9.190;2022-07-29T02:04:44;1.55;;;1.33;;
21665;SDS011;10994;45.486;9.190;2022-07-29T02:07:14;3.15;;;1.48;;
21665;SDS011;10994;45.486;9.190;2022-07-29T02:09:43;1.50;;;1.40;;
21665;SDS011;10994;45.486;9.190;2022-07-29T02:12:10;1.65;;;1.23;;
21665;SDS011;10994;45.486;9.190;2022-07-29T02:14:40;2.70;;;1.10;;
21665;SDS011;10994;45.486;9.190;2022-07-29T02:17:09;2.00;;;1.17;;
21665;SDS011;10994;45.486;9.190;2022-07-29T02:19:37;2.38;;;1.30;;
21665;SDS011;10994;45.486;9.190;2022-07-29T02:22:04;1.65;;;0.90;;
21665;SDS011;10994;45.486;9.190;2022-07-29T02:24:31;1.15;;;1.02;;
21665;SDS011;10994;45.486;9.190;2022-07-29T02:27:00;2.13;;;1.20;;
21665;SDS011;10994;45.486;9.190;2022-07-29T02:29:28;1.30;;;1.20;;
21665;SDS011;10994;45.486;9.190;2022-07-29T02:31:56;0.85;;;0.85;;
21665;SDS011;10994;45.486;9.190;2022-07-29T02:34:23;1.30;;;1.20;;
21665;SDS011;10994;45.486;9.190;2022-07-29T02:36:50;1.73;;;0.93;;
21665;SDS011;10994;45.486;9.190;2022-07-29T02:39:17;1.88;;;1.20;;
21665;SDS011;10994;45.486;9.190;2022-07-29T02:41:46;1.20;;;0.80;;
21665;SDS011;10994;45.486;9.190;2022-07-29T02:44:18;1.80;;;1.08;;
21665;SDS011;10994;45.486;9.190;2022-07-29T02:46:49;1.20;;;1.10;;
21665;SDS011;10994;45.486;9.190;2022-07-29T02:49:27;1.35;;;1.10;;
21665;SDS011;10994;45.486;9.190;2022-07-29T02:52:00;2.35;;;1.30;;
21665;SDS011;10994;45.486;9.190;2022-07-29T02:54:31;1.48;;;1.20;;
21665;SDS011;10994;45.486;9.190;2022-07-29T02:57:06;1.30;;;1.20;;
21665;SDS011;10994;45.486;9.190;2022-07-29T02:59:39;1.10;;;1.00;;
21665;SDS011;10994;45.486;9.190;2022-07-29T03:02:08;1.60;;;1.42;;
21665;SDS011;10994;45.486;9.190;2022-07-29T03:04:36;1.67;;;1.40;;
21665;SDS011;10994;45.486;9.190;2022-07-29T03:07:04;1.35;;;1.20;;
21665;SDS011;10994;45.486;9.190;2022-07-29T03:09:30;3.55;;;1.38;;
21665;SDS011;10994;45.486;9.190;2022-07-29T03:11:57;1.33;;;1.23;;
21665;SDS011;10994;45.486;9.190;2022-07-29T03:14:23;1.73;;;1.50;;
21665;SDS011;10994;45.486;9.190;2022-07-29T03:16:50;1.30;;;1.20;;
21665;SDS011;10994;45.486;9.190;2022-07-29T03:19:17;2.00;;;1.42;;
21665;SDS011;10994;45.486;9.190;2022-07-29T03:21:44;1.80;;;1.27;;
21665;SDS011;10994;45.486;9.190;2022-07-29T03:24:09;1.27;;;1.17;;
21665;SDS011;10994;45.486;9.190;2022-07-29T03:26:35;1.70;;;1.60;;
21665;SDS011;10994;45.486;9.190;2022-07-29T03:29:00;1.52;;;1.33;;
21665;SDS011;10994;45.486;9.190;2022-07-29T03:31:26;1.55;;;1.27;;
21665;SDS011;10994;45.486;9.190;2022-07-29T03:33:52;1.52;;;1.42;;
21665;SDS011;10994;45.486;9.190;2022-07-29T03:36:17;2.55;;;1.33;;
21665;SDS011;10994;45.486;9.190;2022-07-29T03:38:43;3.08;;;1.23;;
21665;SDS011;10994;45.486;9.190;2022-07-29T03:41:11;3.00;;;1.33;;
21665;SDS011;10994;45.486;9.190;2022-07-29T03:43:40;1.23;;;1.10;;
21665;SDS011;10994;45.486;9.190;2022-07-29T03:46:07;1.48;;;1.08;;
21665;SDS011;10994;45.486;9.190;2022-07-29T03:48:35;1.60;;;1.15;;
21665;SDS011;10994;45.486;9.190;2022-07-29T03:51:04;0.80;;;0.80;;
21665;SDS011;10994;45.486;9.190;2022-07-29T03:53:30;1.40;;;1.00;;
21665;SDS011;10994;45.486;9.190;2022-07-29T03:55:58;1.23;;;1.10;;
21665;SDS011;10994;45.486;9.190;2022-07-29T03:58:26;1.63;;;1.15;;
21665;SDS011;10994;45.486;9.190;2022-07-29T04:00:53;1.63;;;1.35;;
21665;SDS011;10994;45.486;9.190;2022-07-29T04:03:20;1.33;;;1.23;;
21665;SDS011;10994;45.486;9.190;2022-07-29T04:05:57;1.42;;;1.33;;
21665;SDS011;10994;45.486;9.190;2022-07-29T04:08:23;1.10;;;1.00;;
21665;SDS011;10994;45.486;9.190;2022-07-29T04:10:49;1.30;;;1.10;;
21665;SDS011;10994;45.486;9.190;2022-07-29T04:13:14;1.10;;;1.00;;
21665;SDS011;10994;45.486;9.190;2022-07-29T04:15:40;2.55;;;1.35;;
21665;SDS011;10994;45.486;9.190;2022-07-29T04:18:06;1.00;;;0.90;;
21665;SDS011;10994;45.486;9.190;2022-07-29T04:20:31;2.17;;;1.35;;
21665;SDS011;10994;45.486;9.190;2022-07-29T04:22:57;4.22;;;1.00;;
21665;SDS011;10994;45.486;9.190;2022-07-29T04:25:23;1.63;;;1.25;;
21665;SDS011;10994;45.486;9.190;2022-07-29T04:27:48;1.23;;;1.13;;
21665;SDS011;10994;45.486;9.190;2022-07-29T04:30:26;2.33;;;1.45;;
21665;SDS011;10994;45.486;9.190;2022-07-29T04:32:52;2.95;;;0.90;;
21665;SDS011;10994;45.486;9.190;2022-07-29T04:35:18;1.35;;;1.05;;
21665;SDS011;10994;45.486;9.190;2022-07-29T04:37:44;2.15;;;1.00;;
21665;SDS011;10994;45.486;9.190;2022-07-29T04:40:10;1.70;;;1.30;;
21665;SDS011;10994;45.486;9.190;2022-07-29T04:42:37;3.55;;;1.27;;
21665;SDS011;10994;45.486;9.190;2022-07-29T04:45:03;5.57;;;1.08;;
21665;SDS011;10994;45.486;9.190;2022-07-29T04:47:29;2.08;;;1.30;;
21665;SDS011;10994;45.486;9.190;2022-07-29T04:49:55;1.83;;;0.95;;
21665;SDS011;10994;45.486;9.190;2022-07-29T04:52:21;1.85;;;1.25;;
21665;SDS011;10994;45.486;9.190;2022-07-29T04:54:47;1.27;;;1.02;;
21665;SDS011;10994;45.486;9.190;2022-07-29T04:57:13;1.00;;;0.90;;
21665;SDS011;10994;45.486;9.190;2022-07-29T04:59:39;2.30;;;0.90;;
21665;SDS011;10994;45.486;9.190;2022-07-29T05:02:05;1.10;;;1.00;;
21665;SDS011;10994;45.486;9.190;2022-07-29T05:04:30;3.08;;;0.90;;
21665;SDS011;10994;45.486;9.190;2022-07-29T05:06:56;1.25;;;1.15;;
21665;SDS011;10994;45.486;9.190;2022-07-29T05:09:21;3.70;;;1.20;;
21665;SDS011;10994;45.486;9.190;2022-07-29T05:11:47;2.70;;;1.40;;
21665;SDS011;10994;45.486;9.190;2022-07-29T05:14:13;1.70;;;1.30;;
21665;SDS011;10994;45.486;9.190;2022-07-29T05:16:38;1.55;;;1.20;;
21665;SDS011;10994;45.486;9.190;2022-07-29T05:19:05;3.70;;;1.17;;
21665;SDS011;10994;45.486;9.190;2022-07-29T05:21:31;1.20;;;0.98;;
21665;SDS011;10994;45.486;9.190;2022-07-29T05:23:57;2.33;;;1.27;;
21665;SDS011;10994;45.486;9.190;2022-07-29T05:26:22;1.35;;;1.00;;
21665;SDS011;10994;45.486;9.190;2022-07-29T05:28:48;2.30;;;1.38;;
21665;SDS011;10994;45.486;9.190;2022-07-29T05:31:14;6.32;;;1.58;;
21665;SDS011;10994;45.486;9.190;2022-07-29T05:33:40;3.25;;;1.10;;
21665;SDS011;10994;45.486;9.190;2022-07-29T05:36:06;1.45;;;1.17;;
21665;SDS011;10994;45.486;9.190;2022-07-29T05:38:33;3.55;;;1.00;;
21665;SDS011;10994;45.486;9.190;2022-07-29T05:40:59;2.00;;;0.90;;
21665;SDS011;10994;45.486;9.190;2022-07-29T05:43:26;2.92;;;1.42;;
21665;SDS011;10994;45.486;9.190;2022-07-29T05:45:54;1.20;;;1.10;;
21665;SDS011;10994;45.486;9.190;2022-07-29T05:48:20;1.45;;;1.10;;
21665;SDS011;10994;45.486;9.190;2022-07-29T05:50:46;2.30;;;1.30;;
21665;SDS011;10994;45.486;9.190;2022-07-29T05:53:13;1.40;;;1.20;;
21665;SDS011;10994;45.486;9.190;2022-07-29T05:55:38;2.80;;;1.65;;
21665;SDS011;10994;45.486;9.190;2022-07-29T05:58:04;1.83;;;0.98;;
21665;SDS011;10994;45.486;9.190;2022-07-29T06:00:30;2.33;;;1.40;;
21665;SDS011;10994;45.486;9.190;2022-07-29T06:02:55;8.35;;;1.42;;
21665;SDS011;10994;45.486;9.190;2022-07-29T06:05:22;6.30;;;1.30;;
21665;SDS011;10994;45.486;9.190;2022-07-29T06:07:47;2.78;;;1.45;;
21665;SDS011;10994;45.486;9.190;2022-07-29T06:10:13;1.50;;;1.20;;
21665;SDS011;10994;45.486;9.190;2022-07-29T06:12:39;2.38;;;1.58;;
21665;SDS011;10994;45.486;9.190;2022-07-29T06:15:05;8.38;;;7.63;;
21665;SDS011;10994;45.486;9.190;2022-07-29T06:17:31;5.03;;;1.80;;
21665;SDS011;10994;45.486;9.190;2022-07-29T06:19:57;1.63;;;1.52;;
21665;SDS011;10994;45.486;9.190;2022-07-29T06:22:22;3.05;;;1.50;;
21665;SDS011;10994;45.486;9.190;2022-07-29T06:24:48;2.15;;;1.90;;
21665;SDS011;10994;45.486;9.190;2022-07-29T06:27:14;2.63;;;2.42;;
21665;SDS011;10994;45.486;9.190;2022-07-29T06:29:41;1.75;;;1.45;;
21665;SDS011;10994;45.486;9.190;2022-07-29T06:32:07;6.65;;;1.40;;
21665;SDS011;10994;45.486;9.190;2022-07-29T06:34:34;3.10;;;1.90;;
21665;SDS011;10994;45.486;9.190;2022-07-29T06:37:00;2.10;;;1.58;;
21665;SDS011;10994;45.486;9.190;2022-07-29T06:39:30;1.35;;;1.25;;
21665;SDS011;10994;45.486;9.190;2022-07-29T06:41:56;1.92;;;1.73;;
21665;SDS011;10994;45.486;9.190;2022-07-29T06:44:23;2.03;;;1.38;;
21665;SDS011;10994;45.486;9.190;2022-07-29T06:46:49;4.50;;;1.52;;
21665;SDS011;10994;45.486;9.190;2022-07-29T06:49:16;5.57;;;2.25;;
21665;SDS011;10994;45.486;9.190;2022-07-29T06:51:42;4.50;;;2.20;;
21665;SDS011;10994;45.486;9.190;2022-07-29T06:54:08;3.17;;;1.92;;
21665;SDS011;10994;45.486;9.190;2022-07-29T06:56:34;5.15;;;1.95;;
21665;SDS011;10994;45.486;9.190;2022-07-29T06:59:02;2.38;;;2.00;;
21665;SDS011;10994;45.486;9.190;2022-07-29T07:01:28;3.80;;;2.05;;
21665;SDS011;10994;45.486;9.190;2022-07-29T07:03:54;5.10;;;3.10;;
21665;SDS011;10994;45.486;9.190;2022-07-29T07:06:19;4.18;;;1.95;;
21665;SDS011;10994;45.486;9.190;2022-07-29T07:08:45;4.60;;;2.72;;
21665;SDS011;10994;45.486;9.190;2022-07-29T07:11:11;4.75;;;2.40;;
21665;SDS011;10994;45.486;9.190;2022-07-29T07:13:36;2.65;;;1.95;;
21665;SDS011;10994;45.486;9.190;2022-07-29T07:16:02;4.03;;;1.90;;
21665;SDS011;10994;45.486;9.190;2022-07-29T07:18:29;2.55;;;1.73;;
21665;SDS011;10994;45.486;9.190;2022-07-29T07:20:55;2.90;;;2.05;;
21665;SDS011;10994;45.486;9.190;2022-07-29T07:23:21;8.27;;;2.25;;
21665;SDS011;10994;45.486;9.190;2022-07-29T07:25:47;2.08;;;1.85;;
21665;SDS011;10994;45.486;9.190;2022-07-29T07:28:13;1.92;;;1.83;;
21665;SDS011;10994;45.486;9.190;2022-07-29T07:30:39;3.85;;;2.40;;
21665;SDS011;10994;45.486;9.190;2022-07-29T07:33:04;6.93;;;2.03;;
21665;SDS011;10994;45.486;9.190;2022-07-29T07:35:30;4.38;;;1.98;;
21665;SDS011;10994;45.486;9.190;2022-07-29T07:37:56;2.10;;;1.80;;
21665;SDS011;10994;45.486;9.190;2022-07-29T07:40:22;2.70;;;2.20;;
21665;SDS011;10994;45.486;9.190;2022-07-29T07:42:48;4.30;;;2.20;;
21665;SDS011;10994;45.486;9.190;2022-07-29T07:45:14;3.50;;;2.17;;
21665;SDS011;10994;45.486;9.190;2022-07-29T07:47:39;3.28;;;2.28;;
21665;SDS011;10994;45.486;9.190;2022-07-29T07:50:06;5.15;;;2.30;;
21665;SDS011;10994;45.486;9.190;2022-07-29T07:52:34;4.07;;;2.22;;
21665;SDS011;10994;45.486;9.190;2022-07-29T07:55:14;3.58;;;2.25;;
21665;SDS011;10994;45.486;9.190;2022-07-29T07:57:40;4.38;;;2.55;;
21665;SDS011;10994;45.486;9.190;2022-07-29T08:00:06;3.33;;;2.33;;
21665;SDS011;10994;45.486;9.190;2022-07-29T08:02:37;5.38;;;2.10;;
21665;SDS011;10994;45.486;9.190;2022-07-29T08:05:04;4.65;;;2.90;;
21665;SDS011;10994;45.486;9.190;2022-07-29T08:07:31;3.38;;;2.25;;
21665;SDS011;10994;45.486;9.190;2022-07-29T08:09:57;4.88;;;3.25;;
21665;SDS011;10994;45.486;9.190;2022-07-29T08:12:23;4.28;;;3.08;;
21665;SDS011;10994;45.486;9.190;2022-07-29T08:14:48;3.55;;;2.20;;
21665;SDS011;10994;45.486;9.190;2022-07-29T08:17:14;2.53;;;2.25;;
21665;SDS011;10994;45.486;9.190;2022-07-29T08:19:40;3.28;;;2.10;;
21665;SDS011;10994;45.486;9.190;2022-07-29T08:22:06;2.35;;;2.15;;
21665;SDS011;10994;45.486;9.190;2022-07-29T08:24:31;3.50;;;2.22;;
21665;SDS011;10994;45.486;9.190;2022-07-29T08:27:11;11.50;;;2.72;;
21665;SDS011;10994;45.486;9.190;2022-07-29T08:29:37;2.80;;;2.10;;
21665;SDS011;10994;45.486;9.190;2022-07-29T08:32:04;5.13;;;2.42;;
21665;SDS011;10994;45.486;9.190;2022-07-29T08:34:30;4.95;;;2.20;;
21665;SDS011;10994;45.486;9.190;2022-07-29T08:36:56;3.95;;;2.60;;
21665;SDS011;10994;45.486;9.190;2022-07-29T08:39:22;3.25;;;2.05;;
21665;SDS011;10994;45.486;9.190;2022-07-29T08:41:48;3.22;;;2.50;;
21665;SDS011;10994;45.486;9.190;2022-07-29T08:44:16;4.65;;;2.55;;
21665;SDS011;10994;45.486;9.190;2022-07-29T08:46:43;9.05;;;5.10;;
21665;SDS011;10994;45.486;9.190;2022-07-29T08:49:09;3.75;;;2.42;;
21665;SDS011;10994;45.486;9.190;2022-07-29T08:51:35;3.25;;;2.33;;
21665;SDS011;10994;45.486;9.190;2022-07-29T08:54:03;4.20;;;2.20;;
21665;SDS011;10994;45.486;9.190;2022-07-29T08:56:30;4.22;;;2.75;;
21665;SDS011;10994;45.486;9.190;2022-07-29T08:58:57;4.20;;;2.67;;
21665;SDS011;10994;45.486;9.190;2022-07-29T09:01:25;3.58;;;2.58;;
21665;SDS011;10994;45.486;9.190;2022-07-29T09:03:54;6.05;;;2.50;;
21665;SDS011;10994;45.486;9.190;2022-07-29T09:06:21;4.88;;;2.30;;
21665;SDS011;10994;45.486;9.190;2022-07-29T09:08:51;4.15;;;2.13;;
21665;SDS011;10994;45.486;9.190;2022-07-29T09:11:16;4.88;;;3.03;;
21665;SDS011;10994;45.486;9.190;2022-07-29T09:13:42;8.18;;;2.60;;
21665;SDS011;10994;45.486;9.190;2022-07-29T09:16:08;2.65;;;2.45;;
21665;SDS011;10994;45.486;9.190;2022-07-29T09:18:35;4.47;;;2.38;;
21665;SDS011;10994;45.486;9.190;2022-07-29T09:21:04;5.28;;;2.10;;
21665;SDS011;10994;45.486;9.190;2022-07-29T09:26:28;4.90;;;2.70;;
21665;SDS011;10994;45.486;9.190;2022-07-29T09:28:58;3.20;;;2.15;;
21665;SDS011;10994;45.486;9.190;2022-07-29T09:31:34;3.92;;;2.58;;
21665;SDS011;10994;45.486;9.190;2022-07-29T09:34:03;2.85;;;2.50;;
21665;SDS011;10994;45.486;9.190;2022-07-29T09:36:30;4.55;;;2.63;;
21665;SDS011;10994;45.486;9.190;2022-07-29T09:39:03;6.07;;;2.40;;
21665;SDS011;10994;45.486;9.190;2022-07-29T09:41:29;3.90;;;2.65;;
21665;SDS011;10994;45.486;9.190;2022-07-29T09:43:56;3.70;;;2.65;;
21665;SDS011;10994;45.486;9.190;2022-07-29T09:46:27;2.88;;;2.58;;
21665;SDS011;10994;45.486;9.190;2022-07-29T09:52:01;3.17;;;2.75;;
21665;SDS011;10994;45.486;9.190;2022-07-29T09:54:30;3.45;;;3.00;;
21665;SDS011;10994;45.486;9.190;2022-07-29T09:57:05;5.35;;;3.10;;
21665;SDS011;10994;45.486;9.190;2022-07-29T09:59:32;4.03;;;2.70;;
21665;SDS011;10994;45.486;9.190;2022-07-29T10:01:58;6.05;;;3.10;;
21665;SDS011;10994;45.486;9.190;2022-07-29T10:04:35;2.67;;;2.40;;
21665;SDS011;10994;45.486;9.190;2022-07-29T10:07:03;3.72;;;2.85;;
21665;SDS011;10994;45.486;9.190;2022-07-29T10:09:30;4.55;;;3.33;;
21665;SDS011;10994;45.486;9.190;2022-07-29T10:12:09;7.05;;;3.63;;
21665;SDS011;10994;45.486;9.190;2022-07-29T10:14:38;4.18;;;3.13;;
21665;SDS011;10994;45.486;9.190;2022-07-29T10:17:05;3.83;;;2.72;;
21665;SDS011;10994;45.486;9.190;2022-07-29T10:19:32;7.15;;;4.00;;
21665;SDS011;10994;45.486;9.190;2022-07-29T10:21:59;5.03;;;4.53;;
21665;SDS011;10994;45.486;9.190;2022-07-29T10:24:26;6.78;;;3.75;;
21665;SDS011;10994;45.486;9.190;2022-07-29T10:26:54;6.75;;;3.95;;
21665;SDS011;10994;45.486;9.190;2022-07-29T10:29:21;3.47;;;2.88;;
21665;SDS011;10994;45.486;9.190;2022-07-29T10:31:57;3.90;;;2.85;;
21665;SDS011;10994;45.486;9.190;2022-07-29T10:37:21;5.25;;;3.50;;
21665;SDS011;10994;45.486;9.190;2022-07-29T10:40:10;5.05;;;3.20;;
21665;SDS011;10994;45.486;9.190;2022-07-29T10:43:17;4.13;;;3.47;;
21665;SDS011;10994;45.486;9.190;2022-07-29T10:45:49;7.15;;;3.60;;
21665;SDS011;10994;45.486;9.190;2022-07-29T10:48:21;5.63;;;3.90;;
21665;SDS011;10994;45.486;9.190;2022-07-29T10:50:54;5.22;;;3.10;;
21665;SDS011;10994;45.486;9.190;2022-07-29T10:53:21;4.78;;;3.60;;
21665;SDS011;10994;45.486;9.190;2022-07-29T10:55:47;3.97;;;3.30;;
21665;SDS011;10994;45.486;9.190;2022-07-29T10:58:18;4.30;;;3.40;;
21665;SDS011;10994;45.486;9.190;2022-07-29T11:00:46;3.63;;;3.20;;
21665;SDS011;10994;45.486;9.190;2022-07-29T11:06:09;7.03;;;3.50;;
21665;SDS011;10994;45.486;9.190;2022-07-29T11:08:34;4.85;;;3.30;;
21665;SDS011;10994;45.486;9.190;2022-07-29T11:16:11;4.40;;;4.00;;
21665;SDS011;10994;45.486;9.190;2022-07-29T11:21:38;5.97;;;3.72;;
21665;SDS011;10994;45.486;9.190;2022-07-29T11:24:15;4.30;;;3.88;;
21665;SDS011;10994;45.486;9.190;2022-07-29T11:26:44;4.68;;;4.05;;
21665;SDS011;10994;45.486;9.190;2022-07-29T11:29:20;3.50;;;3.20;;
21665;SDS011;10994;45.486;9.190;2022-07-29T11:31:50;4.00;;;3.47;;
21665;SDS011;10994;45.486;9.190;2022-07-29T11:34:30;5.80;;;4.63;;
21665;SDS011;10994;45.486;9.190;2022-07-29T11:39:46;5.15;;;3.53;;
21665;SDS011;10994;45.486;9.190;2022-07-29T11:45:17;4.40;;;3.67;;
21665;SDS011;10994;45.486;9.190;2022-07-29T11:50:12;4.35;;;3.95;;
21665;SDS011;10994;45.486;9.190;2022-07-29T11:52:40;4.22;;;3.83;;
21665;SDS011;10994;45.486;9.190;2022-07-29T11:55:16;5.10;;;4.00;;
21665;SDS011;10994;45.486;9.190;2022-07-29T12:01:00;7.63;;;4.53;;
21665;SDS011;10994;45.486;9.190;2022-07-29T12:03:08;5.57;;;4.15;;
21665;SDS011;10994;45.486;9.190;2022-07-29T12:08:20;6.10;;;4.28;;
21665;SDS011;10994;45.486;9.190;2022-07-29T12:10:50;5.80;;;4.45;;
21665;SDS011;10994;45.486;9.190;2022-07-29T12:13:17;4.20;;;3.80;;
21665;SDS011;10994;45.486;9.190;2022-07-29T12:15:51;5.47;;;4.10;;
21665;SDS011;10994;45.486;9.190;2022-07-29T12:18:22;5.35;;;4.25;;
21665;SDS011;10994;45.486;9.190;2022-07-29T12:20:48;5.60;;;4.43;;
21665;SDS011;10994;45.486;9.190;2022-07-29T12:23:21;7.20;;;4.50;;
21665;SDS011;10994;45.486;9.190;2022-07-29T12:25:46;5.95;;;3.97;;
21665;SDS011;10994;45.486;9.190;2022-07-29T12:28:13;4.43;;;3.65;;
21665;SDS011;10994;45.486;9.190;2022-07-29T12:30:42;7.13;;;4.68;;
21665;SDS011;10994;45.486;9.190;2022-07-29T12:35:48;4.28;;;3.92;;
21665;SDS011;10994;45.486;9.190;2022-07-29T12:38:16;5.10;;;4.20;;
21665;SDS011;10994;45.486;9.190;2022-07-29T12:40:43;5.78;;;4.32;;
21665;SDS011;10994;45.486;9.190;2022-07-29T12:45:46;5.32;;;3.95;;
21665;SDS011;10994;45.486;9.190;2022-07-29T12:48:15;8.60;;;4.68;;
21665;SDS011;10994;45.486;9.190;2022-07-29T12:53:20;5.45;;;4.85;;
21665;SDS011;10994;45.486;9.190;2022-07-29T12:55:47;4.95;;;4.13;;
21665;SDS011;10994;45.486;9.190;2022-07-29T13:03:28;4.40;;;4.00;;
21665;SDS011;10994;45.486;9.190;2022-07-29T13:05:54;6.38;;;4.63;;
21665;SDS011;10994;45.486;9.190;2022-07-29T13:08:20;5.55;;;3.95;;
21665;SDS011;10994;45.486;9.190;2022-07-29T13:10:45;4.93;;;4.03;;
21665;SDS011;10994;45.486;9.190;2022-07-29T13:13:14;4.25;;;3.90;;
21665;SDS011;10994;45.486;9.190;2022-07-29T13:15:44;6.75;;;4.22;;
21665;SDS011;10994;45.486;9.190;2022-07-29T13:18:31;4.40;;;4.00;;
21665;SDS011;10994;45.486;9.190;2022-07-29T13:21:13;7.47;;;3.95;;
21665;SDS011;10994;45.486;9.190;2022-07-29T13:23:40;8.27;;;4.22;;
21665;SDS011;10994;45.486;9.190;2022-07-29T13:26:07;5.47;;;3.75;;
21665;SDS011;10994;45.486;9.190;2022-07-29T13:28:34;6.07;;;4.57;;
21665;SDS011;10994;45.486;9.190;2022-07-29T13:31:00;4.47;;;3.85;;
21665;SDS011;10994;45.486;9.190;2022-07-29T13:33:26;5.50;;;3.90;;
21665;SDS011;10994;45.486;9.190;2022-07-29T13:35:52;5.35;;;4.82;;
21665;SDS011;10994;45.486;9.190;2022-07-29T13:38:17;6.63;;;4.15;;
21665;SDS011;10994;45.486;9.190;2022-07-29T13:40:43;5.32;;;3.75;;
21665;SDS011;10994;45.486;9.190;2022-07-29T13:43:09;4.70;;;4.30;;
21665;SDS011;10994;45.486;9.190;2022-07-29T13:45:35;4.50;;;4.20;;
21665;SDS011;10994;45.486;9.190;2022-07-29T13:48:01;4.15;;;3.67;;
21665;SDS011;10994;45.486;9.190;2022-07-29T13:50:27;4.93;;;3.95;;
21665;SDS011;10994;45.486;9.190;2022-07-29T13:52:53;4.80;;;4.05;;
21665;SDS011;10994;45.486;9.190;2022-07-29T13:55:19;8.20;;;6.80;;
21665;SDS011;10994;45.486;9.190;2022-07-29T13:57:44;4.10;;;3.70;;
21665;SDS011;10994;45.486;9.190;2022-07-29T14:00:11;4.35;;;3.90;;
21665;SDS011;10994;45.486;9.190;2022-07-29T14:02:37;4.82;;;4.13;;
21665;SDS011;10994;45.486;9.190;2022-07-29T14:05:04;4.40;;;3.92;;
21665;SDS011;10994;45.486;9.190;2022-07-29T14:07:34;6.60;;;4.20;;
21665;SDS011;10994;45.486;9.190;2022-07-29T14:10:00;7.22;;;3.65;;
21665;SDS011;10994;45.486;9.190;2022-07-29T14:12:26;4.45;;;4.10;;
21665;SDS011;10994;45.486;9.190;2022-07-29T14:14:52;7.07;;;3.72;;
21665;SDS011;10994;45.486;9.190;2022-07-29T14:17:18;3.78;;;3.47;;
21665;SDS011;10994;45.486;9.190;2022-07-29T14:19:43;4.93;;;4.15;;
21665;SDS011;10994;45.486;9.190;2022-07-29T14:22:09;3.97;;;3.58;;
21665;SDS011;10994;45.486;9.190;2022-07-29T14:24:38;7.72;;;3.83;;
21665;SDS011;10994;45.486;9.190;2022-07-29T14:27:04;8.32;;;4.32;;
21665;SDS011;10994;45.486;9.190;2022-07-29T14:29:34;4.22;;;3.83;;
21665;SDS011;10994;45.486;9.190;2022-07-29T14:32:00;5.03;;;3.97;;
21665;SDS011;10994;45.486;9.190;2022-07-29T14:34:25;4.60;;;4.20;;
21665;SDS011;10994;45.486;9.190;2022-07-29T14:36:51;4.15;;;3.75;;
21665;SDS011;10994;45.486;9.190;2022-07-29T14:39:20;8.90;;;3.58;;
21665;SDS011;10994;45.486;9.190;2022-07-29T14:41:50;6.60;;;3.92;;
21665;SDS011;10994;45.486;9.190;2022-07-29T14:44:18;4.32;;;3.92;;
21665;SDS011;10994;45.486;9.190;2022-07-29T14:46:43;4.75;;;3.85;;
21665;SDS011;10994;45.486;9.190;2022-07-29T14:49:12;3.90;;;3.58;;
21665;SDS011;10994;45.486;9.190;2022-07-29T14:51:38;5.40;;;3.72;;
21665;SDS011;10994;45.486;9.190;2022-07-29T14:54:03;5.00;;;3.92;;
21665;SDS011;10994;45.486;9.190;2022-07-29T14:56:29;6.68;;;3.25;;
21665;SDS011;10994;45.486;9.190;2022-07-29T14:58:56;3.53;;;3.22;;
21665;SDS011;10994;45.486;9.190;2022-07-29T15:01:23;4.82;;;3.88;;
21665;SDS011;10994;45.486;9.190;2022-07-29T15:03:49;4.03;;;3.67;;
21665;SDS011;10994;45.486;9.190;2022-07-29T15:06:15;4.28;;;3.80;;
21665;SDS011;10994;45.486;9.190;2022-07-29T15:08:41;4.18;;;3.70;;
21665;SDS011;10994;45.486;9.190;2022-07-29T15:11:07;3.63;;;3.35;;
21665;SDS011;10994;45.486;9.190;2022-07-29T15:13:33;4.47;;;3.45;;
21665;SDS011;10994;45.486;9.190;2022-07-29T15:15:59;5.55;;;3.97;;
21665;SDS011;10994;45.486;9.190;2022-07-29T15:18:25;3.88;;;3.58;;
21665;SDS011;10994;45.486;9.190;2022-07-29T15:20:51;4.25;;;3.70;;
21665;SDS011;10994;45.486;9.190;2022-07-29T15:23:17;5.80;;;4.03;;
21665;SDS011;10994;45.486;9.190;2022-07-29T15:25:43;18.20;;;4.30;;
21665;SDS011;10994;45.486;9.190;2022-07-29T15:28:08;8.90;;;5.78;;
21665;SDS011;10994;45.486;9.190;2022-07-29T15:30:35;9.77;;;4.63;;
21665;SDS011;10994;45.486;9.190;2022-07-29T15:33:06;7.40;;;4.75;;
21665;SDS011;10994;45.486;9.190;2022-07-29T15:35:33;5.22;;;4.75;;
21665;SDS011;10994;45.486;9.190;2022-07-29T15:37:59;11.63;;;6.75;;
21665;SDS011;10994;45.486;9.190;2022-07-29T15:40:26;8.48;;;5.35;;
21665;SDS011;10994;45.486;9.190;2022-07-29T15:42:51;7.22;;;5.43;;
21665;SDS011;10994;45.486;9.190;2022-07-29T15:45:17;9.32;;;5.53;;
21665;SDS011;10994;45.486;9.190;2022-07-29T15:47:43;6.80;;;5.07;;